1898 Cyclonic Storm NOT_NAMED (1898282N13085)


IBTrACS version v04r00. Visit IBTrACS website for data access.
Please direct all questions to the IBTrACS Q and A forum

Storm track - Intensity - Wind Radii - Intensity Data - Source Data - All data

Summary Information

Storm ID 1898282N13085
Start Oct 9 00Z
Landfall Oct 11 03Z
Max Intensity 45 kt (Oct 9 12Z)
End Oct 15 03Z
ATCF IDs
Track status Best track data.

Storm track plot

Map of storm track

Intensity plots

Map of storm track

Radial wind information

No radial wind information for this storm


Position and Intensity Table

BASIN ISO_TIME_________ NATURE LAT LON DS824 WIND
degrees north degrees east kts
NI 1898-10-09 00:00:00 TS 13.20 85.10 34
NI 03:00:00 TS 13.24 85.07 36
NI 06:00:00 TS 13.28 85.03 39
NI 09:00:00 TS 13.29 84.98 42
NI 12:00:00 TS 13.30 84.88 45
NI 15:00:00 TS 13.30 84.66 45
NI 18:00:00 TS 13.29 84.38 45
NI 21:00:00 TS 13.30 84.07 45
NI 1898-10-10 00:00:00 TS 13.36 83.76 45
NI 03:00:00 TS 13.48 83.47 45
NI 06:00:00 TS 13.69 83.23 45
NI 09:00:00 TS 13.95 83.00 45
NI 12:00:00 TS 14.25 82.74 45
NI 15:00:00 TS 14.55 82.41 45
NI 18:00:00 TS 14.86 82.00 45
NI 21:00:00 TS 15.20 81.60 45
NI 1898-10-11 00:00:00 TS 15.54 81.25 45
NI 03:00:00 TS 15.83 80.99 41
NI 06:00:00 TS 16.10 80.85 37
NI 09:00:00 TS 16.39 80.79 33
NI 12:00:00 TS 16.67 80.85 30
NI 15:00:00 TS 16.93 81.03 30
NI 18:00:00 TS 17.18 81.30 30
NI 21:00:00 TS 17.44 81.59 30
NI 1898-10-12 00:00:00 TS 17.68 81.92 30
NI 03:00:00 TS 17.90 82.28 30
NI 06:00:00 TS 18.12 82.62 30
NI 09:00:00 TS 18.36 82.94 30
NI 12:00:00 TS 18.59 83.25 30
NI 15:00:00 TS 18.80 83.53 30
NI 18:00:00 TS 18.99 83.78 30
NI 21:00:00 TS 19.18 84.03 30
NI 1898-10-13 00:00:00 TS 19.38 84.28 30
NI 03:00:00 TS 19.64 84.55 30
NI 06:00:00 TS 19.94 84.84 30
NI 09:00:00 TS 20.26 85.10 30
NI 12:00:00 TS 20.62 85.36 30
NI 15:00:00 TS 21.00 85.63 30
NI 18:00:00 TS 21.40 85.87 30
NI 21:00:00 TS 21.80 86.11 30
NI 1898-10-14 00:00:00 TS 22.20 86.37 30
NI 03:00:00 TS 22.58 86.64 30
NI 06:00:00 TS 22.93 86.94 30
NI 09:00:00 TS 23.25 87.26 30
NI 12:00:00 TS 23.55 87.61 30
NI 15:00:00 TS 23.85 88.01 30
NI 18:00:00 TS 24.12 88.43 30
NI 21:00:00 TS 24.38 88.90 30
NI 1898-10-15 00:00:00 TS 24.62 89.36 30
NI 03:00:00 NR 24.80 89.70

Source Information

Agency Information
USA
TOKYO
CMA
HKO
NEWDELHI
REUNION
BOM
NADI
WELLINGTON
DS824 n_ind.dat:250:NOT NAMED
TD9636 cons_worldwide_trop_cyclone_18710101-19891231-004:Line=2481
TD9635
NEUMANN
MLC

All available IBTrACS Data

SEASON BASIN SUBBASIN ISO_TIME_________ NATURE LAT LON DIST2LAND LANDFALL IFLAG USA SSHS DS824 LAT DS824 LON DS824 STAGE DS824 WIND TD9636 LAT TD9636 LON TD9636 STAGE STORM SPEED STORM DIR
Year degrees north degrees east km km 1 degrees north degrees east kts degrees north degrees east kts degrees
1898 NI BB 1898-10-09 00:00:00 TS 13.20 85.10 485 485 _________O____ -1 13.20 85.10 TC 34 1 316
1898 NI BB 03:00:00 TS 13.24 85.07 485 469 _________PO___ -1 13.26 85.05 TC 36 13.20 85.10 2 1 316
1898 NI BB 06:00:00 TS 13.28 85.03 469 469 _________OP___ -1 13.30 85.00 TC 39 13.24 85.08 2 1 303
1898 NI BB 09:00:00 TS 13.29 84.98 469 463 _________PP___ -1 13.31 84.94 TC 42 13.27 85.05 2 2 278
1898 NI BB 12:00:00 TS 13.30 84.88 463 450 _________OP___ -1 13.30 84.80 TC 45 13.29 84.96 2 3 271
1898 NI BB 15:00:00 TS 13.30 84.66 450 432 _________PO___ -1 13.29 84.53 TC 45 13.30 84.80 3 5 270
1898 NI BB 18:00:00 TS 13.29 84.38 432 411 _________OP___ -1 13.30 84.20 TC 45 13.29 84.56 3 6 271
1898 NI BB 21:00:00 TS 13.30 84.07 411 378 _________PP___ -1 13.32 83.89 TC 45 13.28 84.25 3 6 276
1898 NI BB 1898-10-10 00:00:00 TS 13.36 83.76 378 346 _________OP___ -1 13.40 83.60 TC 45 13.31 83.92 3 6 287
1898 NI BB 03:00:00 TS 13.48 83.47 346 313 _________PO___ -1 13.56 83.34 TC 45 13.40 83.60 3 6 303
1898 NI BB 06:00:00 TS 13.69 83.23 313 291 _________OP___ -1 13.80 83.10 TC 45 13.57 83.36 3 7 315
1898 NI BB 09:00:00 TS 13.95 83.00 291 263 _________PP___ -1 14.08 82.87 TC 45 13.81 83.12 3 7 320
1898 NI BB 12:00:00 TS 14.25 82.74 255 209 _________OP___ -1 14.40 82.60 TC 45 14.09 82.88 3 8 316
1898 NI BB 15:00:00 TS 14.55 82.41 209 155 _________PO___ -1 14.69 82.21 TC 45 14.40 82.60 3 9 311
1898 NI BB 18:00:00 TS 14.86 82.00 147 92 _________OP___ -1 15.00 81.80 TC 45 14.71 82.21 3 10 310
1898 NI BB 21:00:00 TS 15.20 81.60 92 46 _________PP___ -1 15.36 81.41 TC 45 15.04 81.79 3 10 313
1898 NI BB 1898-10-11 00:00:00 TS 15.54 81.25 46 0 _________OP___ -1 15.70 81.10 TC 45 15.38 81.40 3 9 317
1898 NI BB 03:00:00 TS 15.83 80.99 0 0 _________PO___ -1 15.96 80.89 TC 41 15.70 81.10 3 7 325
1898 NI BB 06:00:00 TS 16.10 80.85 0 0 _________OP___ -1 16.20 80.80 TC 37 15.99 80.90 3 6 341
1898 NI BB 09:00:00 TS 16.39 80.79 0 0 _________PP___ -1 16.50 80.78 TC 33 16.27 80.80 3 6 0
1898 NI BB 12:00:00 TS 16.67 80.85 0 0 _________OP___ -1 16.80 80.90 TC 30 16.54 80.80 3 6 23
1898 NI BB 15:00:00 TS 16.93 81.03 0 0 _________PO___ -1 17.06 81.16 TC 30 16.80 80.90 1 7 40
1898 NI BB 18:00:00 TS 17.18 81.30 0 0 _________OP___ -1 17.30 81.50 TC 30 17.06 81.09 1 7 46
1898 NI BB 21:00:00 TS 17.44 81.59 0 0 _________PP___ -1 17.56 81.79 TC 30 17.32 81.39 1 8 50
1898 NI BB 1898-10-12 00:00:00 TS 17.68 81.92 0 0 _________OP___ -1 17.80 82.10 TC 30 17.56 81.74 1 8 55
1898 NI BB 03:00:00 TS 17.90 82.28 0 0 _________PO___ -1 18.00 82.45 TC 30 17.80 82.10 1 8 57
1898 NI BB 06:00:00 TS 18.12 82.62 0 0 _________OP___ -1 18.20 82.80 TC 30 18.04 82.43 1 8 54
1898 NI BB 09:00:00 TS 18.36 82.94 0 0 _________PP___ -1 18.45 83.12 TC 30 18.27 82.77 1 8 52
1898 NI BB 12:00:00 TS 18.59 83.25 0 0 _________OP___ -1 18.70 83.40 TC 30 18.49 83.09 1 7 51
1898 NI BB 15:00:00 TS 18.80 83.53 0 0 _________PO___ -1 18.91 83.66 TC 30 18.70 83.40 1 6 52
1898 NI BB 18:00:00 TS 18.99 83.78 0 0 _________OP___ -1 19.10 83.90 TC 30 18.89 83.67 1 6 52
1898 NI BB 21:00:00 TS 19.18 84.03 0 0 _________PP___ -1 19.28 84.14 TC 30 19.07 83.92 1 6 50
1898 NI BB 1898-10-13 00:00:00 TS 19.38 84.28 0 0 _________OP___ -1 19.50 84.40 TC 30 19.27 84.16 1 7 47
1898 NI BB 03:00:00 TS 19.64 84.55 0 0 _________PO___ -1 19.78 84.70 TC 30 19.50 84.40 1 8 43
1898 NI BB 06:00:00 TS 19.94 84.84 0 0 _________OP___ -1 20.10 85.00 TC 30 19.78 84.67 1 8 40
1898 NI BB 09:00:00 TS 20.26 85.10 0 0 _________PP___ -1 20.43 85.26 TC 30 20.09 84.95 1 8 36
1898 NI BB 12:00:00 TS 20.62 85.36 0 0 _________OP___ -1 20.80 85.50 TC 30 20.43 85.23 1 9 34
1898 NI BB 15:00:00 TS 21.00 85.63 0 0 _________PO___ -1 21.19 85.75 TC 30 20.80 85.50 1 9 31
1898 NI BB 18:00:00 TS 21.40 85.87 0 0 _________OP___ -1 21.60 86.00 TC 30 21.19 85.75 1 9 29
1898 NI BB 21:00:00 TS 21.80 86.11 0 0 _________PP___ -1 22.01 86.24 TC 30 21.60 85.99 1 9 29
1898 NI BB 1898-10-14 00:00:00 TS 22.20 86.37 0 0 _________OP___ -1 22.40 86.50 TC 30 22.01 86.23 1 9 32
1898 NI BB 03:00:00 TS 22.58 86.64 0 0 _________PO___ -1 22.76 86.79 TC 30 22.40 86.50 1 9 36
1898 NI BB 06:00:00 TS 22.93 86.94 0 0 _________OP___ -1 23.10 87.10 TC 30 22.75 86.78 1 9 40
1898 NI BB 09:00:00 TS 23.25 87.26 0 0 _________PP___ -1 23.41 87.43 TC 30 23.09 87.08 1 9 45
1898 NI BB 12:00:00 TS 23.55 87.61 0 0 _________OP___ -1 23.70 87.80 TC 30 23.40 87.42 1 9 49
1898 NI BB 15:00:00 TS 23.85 88.01 0 0 _________PO___ -1 24.01 88.23 TC 30 23.70 87.80 1 9 53
1898 NI BB 18:00:00 TS 24.12 88.43 0 0 _________OP___ -1 24.30 88.70 TC 30 23.99 88.23 1 10 57
1898 NI BB 21:00:00 TS 24.38 88.90 0 0 _________PP___ -1 24.56 89.19 TC 30 24.26 88.70 1 10 59
1898 NI BB 1898-10-15 00:00:00 TS 24.62 89.36 0 0 _________OP___ -1 24.80 89.70 TC 30 24.53 89.19 1 8 60
1898 NI BB 03:00:00 NR 24.80 89.70 0 __________O___ -1 TC 24.80 89.70 1 7 60